createdAt,value
2019-03-26T00:01:21.917Z,2.80
2019-03-26T00:04:04.874Z,3.20
2019-03-26T00:06:24.971Z,2.73
2019-03-26T00:08:55.644Z,3.00
2019-03-26T00:11:26.388Z,3.70
2019-03-26T00:13:57.840Z,2.53
2019-03-26T00:16:28.599Z,2.10
2019-03-26T00:18:59.284Z,2.70
2019-03-26T00:21:29.983Z,3.37
2019-03-26T00:24:00.652Z,2.07
2019-03-26T00:26:31.362Z,2.50
2019-03-26T00:29:02.048Z,2.60
2019-03-26T00:31:32.771Z,3.10
2019-03-26T00:34:04.601Z,2.70
2019-03-26T00:36:35.291Z,2.50
2019-03-26T00:39:07.164Z,3.37
2019-03-26T00:41:37.847Z,2.97
2019-03-26T00:44:08.523Z,2.43
2019-03-26T00:46:40.299Z,3.77
2019-03-26T00:49:12.023Z,3.07
2019-03-26T00:51:42.752Z,3.13
2019-03-26T00:54:13.446Z,3.23
2019-03-26T00:56:45.211Z,3.10
2019-03-26T00:59:15.902Z,2.63
2019-03-26T01:01:46.563Z,3.33
2019-03-26T01:04:17.268Z,2.70
2019-03-26T01:06:47.944Z,2.80
2019-03-26T01:09:18.643Z,2.90
2019-03-26T01:11:49.319Z,3.33
2019-03-26T01:14:20.996Z,2.97
2019-03-26T01:16:51.719Z,3.03
2019-03-26T01:19:22.387Z,2.60
2019-03-26T01:21:53.159Z,2.70
2019-03-26T01:24:23.831Z,2.90
2019-03-26T01:26:54.507Z,3.47
2019-03-26T01:29:25.173Z,2.77
2019-03-26T01:31:55.875Z,2.60
2019-03-26T01:34:26.539Z,3.20
2019-03-26T01:36:57.256Z,2.20
2019-03-26T01:39:27.915Z,2.90
2019-03-26T01:41:58.615Z,2.77
2019-03-26T01:44:29.319Z,2.90
2019-03-26T01:46:59.991Z,3.20
2019-03-26T01:49:30.668Z,3.33
2019-03-26T01:52:01.368Z,2.37
2019-03-26T01:54:32.043Z,2.70
2019-03-26T01:57:02.741Z,2.33
2019-03-26T01:59:33.422Z,3.00
2019-03-26T02:02:04.155Z,2.70
2019-03-26T02:04:34.887Z,2.40
2019-03-26T02:07:05.591Z,2.60
2019-03-26T02:09:36.278Z,2.90
2019-03-26T02:12:06.959Z,2.93
2019-03-26T02:14:37.917Z,3.23
2019-03-26T02:17:08.603Z,2.50
2019-03-26T02:19:39.364Z,2.77
2019-03-26T02:22:11.014Z,2.90
2019-03-26T02:24:41.672Z,2.70
2019-03-26T02:27:12.361Z,2.90
2019-03-26T02:29:43.033Z,2.83
2019-03-26T02:32:13.742Z,2.67
2019-03-26T02:34:44.424Z,3.07
2019-03-26T02:37:15.198Z,4.13
2019-03-26T02:39:45.873Z,3.30
2019-03-26T02:42:16.579Z,2.80
2019-03-26T02:44:47.267Z,2.50
2019-03-26T02:47:17.947Z,2.93
2019-03-26T02:49:48.623Z,2.20
2019-03-26T02:52:19.338Z,2.40
2019-03-26T02:54:50.021Z,2.20
2019-03-26T02:57:20.723Z,2.10
2019-03-26T02:59:51.408Z,2.47
2019-03-26T03:02:22.096Z,2.20
2019-03-26T03:04:52.790Z,1.97
2019-03-26T03:07:24.579Z,2.70
2019-03-26T03:09:55.310Z,2.70
2019-03-26T03:12:26.098Z,2.93
2019-03-26T03:14:56.771Z,2.33
2019-03-26T03:17:27.435Z,2.40
2019-03-26T03:19:58.101Z,2.40
2019-03-26T03:22:28.812Z,1.97
2019-03-26T03:24:59.571Z,2.63
2019-03-26T03:27:30.256Z,2.57
2019-03-26T03:30:00.933Z,2.70
2019-03-26T03:32:31.645Z,2.37
2019-03-26T03:35:02.350Z,2.10
2019-03-26T03:37:33.104Z,2.83
2019-03-26T03:40:03.786Z,2.70
2019-03-26T03:42:34.876Z,2.00
2019-03-26T03:45:07.737Z,2.33
2019-03-26T03:47:38.719Z,2.20
2019-03-26T03:50:09.827Z,2.63
2019-03-26T03:52:41.088Z,2.80
2019-03-26T03:55:12.383Z,2.60
2019-03-26T03:57:43.141Z,2.00
2019-03-26T04:00:39.716Z,2.60
2019-03-26T04:03:11.248Z,2.90
2019-03-26T04:05:41.926Z,2.53
2019-03-26T04:08:12.662Z,2.10
2019-03-26T04:10:43.343Z,2.50
2019-03-26T04:13:14.034Z,2.80
2019-03-26T04:15:44.696Z,2.53
2019-03-26T04:18:15.444Z,3.20
2019-03-26T04:20:46.098Z,3.57
2019-03-26T04:23:16.793Z,2.90
2019-03-26T04:25:47.472Z,2.80
2019-03-26T04:28:18.177Z,4.33
2019-03-26T04:30:48.832Z,3.30
2019-03-26T04:33:19.518Z,3.20
2019-03-26T04:35:50.222Z,2.83
2019-03-26T04:38:20.933Z,3.40
2019-03-26T04:40:51.722Z,2.60
2019-03-26T04:43:22.388Z,3.20
2019-03-26T04:45:53.110Z,3.60
2019-03-26T04:48:23.766Z,3.33
2019-03-26T04:50:54.476Z,3.10
2019-03-26T04:53:25.151Z,3.10
2019-03-26T04:55:55.866Z,3.60
2019-03-26T04:58:26.639Z,2.53
2019-03-26T05:00:57.305Z,3.20
2019-03-26T05:03:28.076Z,3.03
2019-03-26T05:05:59.707Z,3.30
2019-03-26T05:08:30.393Z,2.90
2019-03-26T05:11:01.046Z,3.00
2019-03-26T05:13:31.748Z,3.77
2019-03-26T05:16:02.427Z,3.53
2019-03-26T05:18:33.139Z,3.70
2019-03-26T05:21:03.810Z,3.27
2019-03-26T05:23:34.507Z,3.60
2019-03-26T05:26:05.287Z,3.13
2019-03-26T05:28:35.984Z,4.13
2019-03-26T05:31:06.670Z,3.67
2019-03-26T05:33:37.403Z,4.43
2019-03-26T05:36:08.093Z,3.50
2019-03-26T05:38:38.838Z,3.40
2019-03-26T05:41:10.643Z,3.37
2019-03-26T05:43:42.512Z,3.93
2019-03-26T05:46:13.203Z,3.90
2019-03-26T05:48:43.885Z,2.93
2019-03-26T05:51:14.559Z,3.97
2019-03-26T05:53:45.256Z,3.77
2019-03-26T05:56:15.922Z,4.47
2019-03-26T05:58:46.645Z,3.73
2019-03-26T06:01:17.319Z,2.67
2019-03-26T06:03:48.042Z,3.23
2019-03-26T06:06:18.768Z,3.30
2019-03-26T06:08:49.503Z,3.17
2019-03-26T06:11:20.195Z,3.30
2019-03-26T06:13:50.871Z,3.77
2019-03-26T06:16:21.567Z,4.07
2019-03-26T06:18:52.244Z,4.13
2019-03-26T06:21:22.924Z,3.70
2019-03-26T06:23:53.951Z,5.03
2019-03-26T06:26:24.777Z,4.20
2019-03-26T06:28:55.513Z,3.13
2019-03-26T06:31:26.204Z,4.10
2019-03-26T06:33:56.847Z,3.43
2019-03-26T06:36:27.528Z,3.70
2019-03-26T06:38:58.213Z,4.33
2019-03-26T06:41:28.928Z,3.00
2019-03-26T06:43:59.613Z,3.90
2019-03-26T06:46:30.316Z,4.67
2019-03-26T06:49:00.971Z,4.20
2019-03-26T06:51:31.672Z,3.20
2019-03-26T06:54:02.342Z,3.87
2019-03-26T06:56:33.111Z,3.93
2019-03-26T06:59:03.783Z,3.63
2019-03-26T07:01:34.588Z,3.60
2019-03-26T07:04:05.352Z,4.23
2019-03-26T07:06:36.074Z,3.30
2019-03-26T07:09:07.976Z,3.37
2019-03-26T07:11:38.667Z,3.50
2019-03-26T07:14:09.347Z,3.03
2019-03-26T07:16:40.069Z,3.70
2019-03-26T07:19:10.791Z,3.90
2019-03-26T07:21:49.591Z,3.50
2019-03-26T07:24:13.886Z,4.37
2019-03-26T07:26:44.576Z,3.60
2019-03-26T07:29:15.244Z,3.80
2019-03-26T07:31:45.923Z,3.83
2019-03-26T07:34:16.584Z,3.60
2019-03-26T07:36:47.256Z,3.57
2019-03-26T07:39:17.987Z,3.53
2019-03-26T07:41:48.691Z,3.43
2019-03-26T07:44:20.325Z,3.57
2019-03-26T07:46:51.013Z,3.20
2019-03-26T07:49:21.684Z,3.60
2019-03-26T07:51:52.431Z,3.30
2019-03-26T07:54:23.084Z,3.47
2019-03-26T07:56:53.790Z,4.00
2019-03-26T07:59:24.452Z,2.83
2019-03-26T08:01:55.143Z,3.83
2019-03-26T08:04:25.807Z,3.50
2019-03-26T08:06:56.500Z,2.70
2019-03-26T08:09:27.321Z,3.00
2019-03-26T08:11:58.091Z,3.93
2019-03-26T08:14:28.790Z,3.77
2019-03-26T08:16:59.544Z,3.17
2019-03-26T08:19:30.280Z,2.80
2019-03-26T08:22:00.991Z,2.90
2019-03-26T08:24:31.664Z,3.40
2019-03-26T08:27:02.364Z,3.20
2019-03-26T08:29:33.031Z,3.03
2019-03-26T08:32:03.761Z,3.37
2019-03-26T08:34:34.440Z,3.53
2019-03-26T08:37:05.151Z,3.03
2019-03-26T08:39:35.811Z,3.03
2019-03-26T08:42:06.499Z,2.57
2019-03-26T08:44:37.176Z,3.27
2019-03-26T08:47:07.887Z,3.33
2019-03-26T08:49:38.576Z,2.90
2019-03-26T08:52:09.285Z,3.70
2019-03-26T08:54:39.966Z,3.27
2019-03-26T08:57:11.732Z,3.47
2019-03-26T08:59:42.451Z,3.20
2019-03-26T09:02:13.172Z,3.13
2019-03-26T09:04:43.868Z,3.80
2019-03-26T09:07:14.584Z,3.23
2019-03-26T09:09:45.436Z,3.33
2019-03-26T09:12:16.130Z,3.37
2019-03-26T09:14:46.815Z,3.10
2019-03-26T09:17:19.840Z,4.93
2019-03-26T09:19:49.928Z,3.30
2019-03-26T09:22:20.664Z,3.97
2019-03-26T09:24:51.339Z,2.93
2019-03-26T09:27:22.024Z,3.07
2019-03-26T09:29:52.701Z,3.50
2019-03-26T09:32:23.385Z,3.27
2019-03-26T09:34:54.112Z,3.10
2019-03-26T09:37:24.832Z,4.00
2019-03-26T09:39:55.531Z,2.70
2019-03-26T09:42:26.223Z,2.87
2019-03-26T09:44:56.916Z,2.37
2019-03-26T09:47:27.608Z,2.90
2019-03-26T09:49:58.264Z,2.40
2019-03-26T09:52:28.967Z,2.33
2019-03-26T09:54:59.658Z,2.57
2019-03-26T09:57:30.343Z,3.90
2019-03-26T10:00:01.000Z,2.87
2019-03-26T10:02:31.724Z,3.07
2019-03-26T10:05:02.430Z,2.73
2019-03-26T10:07:33.184Z,2.67
2019-03-26T10:10:04.211Z,2.90
2019-03-26T10:12:35.048Z,2.43
2019-03-26T10:15:06.367Z,2.50
2019-03-26T10:17:37.150Z,2.63
2019-03-26T10:20:08.252Z,2.67
2019-03-26T10:22:38.959Z,2.53
2019-03-26T10:25:11.208Z,3.47
2019-03-26T10:27:44.470Z,2.60
2019-03-26T10:30:16.729Z,3.77
2019-03-26T10:32:47.553Z,3.07
2019-03-26T10:35:18.270Z,3.30
2019-03-26T10:37:48.948Z,2.70
2019-03-26T10:40:31.356Z,2.60
2019-03-26T10:43:02.215Z,2.90
2019-03-26T10:45:32.887Z,3.47
2019-03-26T10:48:03.588Z,2.87
2019-03-26T10:50:34.247Z,2.33
2019-03-26T10:53:05.075Z,3.20
2019-03-26T10:55:35.744Z,3.10
2019-03-26T10:58:06.544Z,3.00
2019-03-26T11:00:37.212Z,3.23
2019-03-26T11:03:07.941Z,2.90
2019-03-26T11:05:38.624Z,2.67
2019-03-26T11:08:09.347Z,3.30
2019-03-26T11:10:40.050Z,3.13
2019-03-26T11:13:10.785Z,3.00
2019-03-26T11:15:41.456Z,2.80
2019-03-26T11:18:12.197Z,2.87
2019-03-26T11:20:42.905Z,3.00
2019-03-26T11:23:13.707Z,3.53
2019-03-26T11:25:44.399Z,3.10
2019-03-26T11:28:15.107Z,3.17
2019-03-26T11:30:45.787Z,3.50
2019-03-26T11:33:16.516Z,3.50
2019-03-26T11:35:47.197Z,3.90
2019-03-26T11:38:18.646Z,3.93
2019-03-26T11:40:49.490Z,3.17
2019-03-26T11:43:20.279Z,2.63
2019-03-26T11:45:50.950Z,2.83
2019-03-26T11:48:21.643Z,2.60
2019-03-26T11:50:52.322Z,3.50
2019-03-26T11:53:23.072Z,3.33
2019-03-26T11:55:53.764Z,2.80
2019-03-26T11:58:30.573Z,2.90
2019-03-26T12:00:56.893Z,3.00
2019-03-26T12:03:27.611Z,3.00
2019-03-26T12:05:58.302Z,4.50
2019-03-26T12:08:28.994Z,2.77
2019-03-26T12:10:59.669Z,3.37
2019-03-26T12:13:30.424Z,2.80
2019-03-26T12:16:01.124Z,3.23
2019-03-26T12:18:31.826Z,2.80
2019-03-26T12:21:02.533Z,2.77
2019-03-26T12:23:33.236Z,2.60
2019-03-26T12:26:03.911Z,2.77
2019-03-26T12:28:34.606Z,3.20
2019-03-26T12:31:05.301Z,3.00
2019-03-26T12:33:36.046Z,2.30
2019-03-26T12:36:06.767Z,2.70
2019-03-26T12:38:37.454Z,2.67
2019-03-26T12:41:08.172Z,2.33
2019-03-26T12:43:38.892Z,2.73
2019-03-26T12:46:09.577Z,2.67
2019-03-26T12:48:40.289Z,3.10
2019-03-26T12:51:10.964Z,2.77
2019-03-26T12:53:41.708Z,3.03
2019-03-26T12:56:12.391Z,2.80
2019-03-26T12:58:43.155Z,2.47
2019-03-26T13:01:13.840Z,2.77
2019-03-26T13:03:44.643Z,3.17
2019-03-26T13:06:15.329Z,3.27
2019-03-26T13:08:46.054Z,3.13
2019-03-26T13:11:17.280Z,3.20
2019-03-26T13:13:48.221Z,3.30
2019-03-26T13:16:18.936Z,3.07
2019-03-26T13:18:49.648Z,2.80
2019-03-26T13:21:20.336Z,3.43
2019-03-26T13:23:51.108Z,3.63
2019-03-26T13:26:21.867Z,2.77
2019-03-26T13:28:52.551Z,3.40
2019-03-26T13:31:23.260Z,2.93
2019-03-26T13:33:54.014Z,4.17
2019-03-26T13:36:24.687Z,4.17
2019-03-26T13:38:55.548Z,3.90
2019-03-26T13:41:26.228Z,4.00
2019-03-26T13:43:56.996Z,2.93
2019-03-26T13:46:27.740Z,4.97
2019-03-26T13:48:58.515Z,3.30
2019-03-26T13:51:29.368Z,3.77
2019-03-26T13:54:00.088Z,3.30
2019-03-26T13:56:30.816Z,4.70
2019-03-26T13:59:01.524Z,3.60
2019-03-26T14:01:32.231Z,3.70
2019-03-26T14:04:02.959Z,3.43
2019-03-26T14:06:33.681Z,4.23
2019-03-26T14:09:06.351Z,3.70
2019-03-26T14:11:37.196Z,3.83
2019-03-26T14:14:07.877Z,3.40
2019-03-26T14:16:38.599Z,3.80
2019-03-26T14:19:09.344Z,3.33
2019-03-26T14:21:40.002Z,3.53
2019-03-26T14:24:13.390Z,3.27
2019-03-26T14:26:43.096Z,3.50
2019-03-26T14:29:13.891Z,3.30
2019-03-26T14:31:46.358Z,3.03
2019-03-26T14:34:17.071Z,3.17
2019-03-26T14:36:47.756Z,3.53
2019-03-26T14:39:21.629Z,2.63
2019-03-26T14:41:52.304Z,2.50
2019-03-26T14:44:23.023Z,3.00
2019-03-26T14:46:53.715Z,3.23
2019-03-26T14:49:24.423Z,2.83
2019-03-26T14:51:56.159Z,2.87
2019-03-26T14:54:27.030Z,4.23
2019-03-26T14:56:57.763Z,3.47
2019-03-26T14:59:28.496Z,2.77
2019-03-26T15:01:59.213Z,4.30
2019-03-26T15:04:29.925Z,3.60
2019-03-26T15:07:01.572Z,2.70
2019-03-26T15:09:32.284Z,3.13
2019-03-26T15:12:02.975Z,3.33
2019-03-26T15:14:33.683Z,3.00
2019-03-26T15:17:04.355Z,3.57
2019-03-26T15:19:35.073Z,3.20
2019-03-26T15:22:05.796Z,3.70
2019-03-26T15:24:36.508Z,2.93
2019-03-26T15:27:07.198Z,3.40
2019-03-26T15:29:38.016Z,3.63
2019-03-26T15:32:08.690Z,3.10
2019-03-26T15:34:39.441Z,3.87
2019-03-26T15:37:10.135Z,3.13
2019-03-26T15:39:40.885Z,3.10
2019-03-26T15:42:11.605Z,3.80
2019-03-26T15:44:42.371Z,3.20
2019-03-26T15:47:13.040Z,3.40
2019-03-26T15:49:43.787Z,2.87
2019-03-26T15:52:14.503Z,2.83
2019-03-26T15:54:45.192Z,2.43
2019-03-26T15:57:15.871Z,2.90
2019-03-26T15:59:46.580Z,3.10
2019-03-26T16:02:17.268Z,3.50
2019-03-26T16:04:48.054Z,3.33
2019-03-26T16:07:18.792Z,3.70
2019-03-26T16:09:49.516Z,3.30
2019-03-26T16:12:20.244Z,2.73
2019-03-26T16:14:51.007Z,4.00
2019-03-26T16:17:21.704Z,3.30
2019-03-26T16:19:52.493Z,2.83
2019-03-26T16:22:23.180Z,3.40
2019-03-26T16:24:53.976Z,3.87
2019-03-26T16:27:24.684Z,3.50
2019-03-26T16:29:55.393Z,2.90
2019-03-26T16:32:26.095Z,3.60
2019-03-26T16:34:56.808Z,3.20
2019-03-26T16:37:27.515Z,2.73
2019-03-26T16:39:58.202Z,3.33
2019-03-26T16:42:28.907Z,3.00
2019-03-26T16:44:59.597Z,2.80
2019-03-26T16:47:30.282Z,3.13
2019-03-26T16:50:01.011Z,3.40
2019-03-26T16:52:31.700Z,3.40
2019-03-26T16:55:02.421Z,2.90
2019-03-26T16:57:33.094Z,3.07
2019-03-26T17:00:04.023Z,4.10
2019-03-26T17:02:34.783Z,3.10
2019-03-26T17:05:05.819Z,3.53
2019-03-26T17:07:36.579Z,3.10
2019-03-26T17:10:08.566Z,3.10
2019-03-26T17:12:40.272Z,3.50
2019-03-26T17:15:11.005Z,3.50
2019-03-26T17:17:41.694Z,4.93
2019-03-26T17:20:12.725Z,3.30
2019-03-26T17:22:43.425Z,3.80
2019-03-26T17:25:14.152Z,3.23
2019-03-26T17:27:44.856Z,3.40
2019-03-26T17:30:15.748Z,3.70
2019-03-26T17:32:46.427Z,3.93
2019-03-26T17:35:17.150Z,3.87
2019-03-26T17:37:58.858Z,3.67
2019-03-26T17:40:20.243Z,3.53
2019-03-26T17:42:50.919Z,3.47
2019-03-26T17:45:21.640Z,3.50
2019-03-26T17:47:52.364Z,3.80
2019-03-26T17:50:24.051Z,3.23
2019-03-26T17:52:55.675Z,3.73
2019-03-26T17:55:26.407Z,3.30
2019-03-26T17:57:57.112Z,4.10
2019-03-26T18:00:39.472Z,3.33
2019-03-26T18:03:10.195Z,4.00
2019-03-26T18:05:40.927Z,3.60
2019-03-26T18:08:11.659Z,3.57
2019-03-26T18:10:42.394Z,4.20
2019-03-26T18:13:13.169Z,3.43
2019-03-26T18:15:43.896Z,3.80
2019-03-26T18:18:14.588Z,4.57
2019-03-26T18:20:45.315Z,3.97
2019-03-26T18:23:16.094Z,4.37
2019-03-26T18:25:46.815Z,4.70
2019-03-26T18:28:17.529Z,4.00
2019-03-26T18:30:48.320Z,5.70
2019-03-26T18:33:19.010Z,4.77
2019-03-26T18:35:50.739Z,5.83
2019-03-26T18:38:21.531Z,4.47
2019-03-26T18:40:52.244Z,3.70
2019-03-26T18:43:22.933Z,4.70
2019-03-26T18:45:53.693Z,4.73
2019-03-26T18:48:25.404Z,5.57
2019-03-26T18:50:56.093Z,7.60
2019-03-26T18:53:26.759Z,5.90
2019-03-26T18:55:57.464Z,6.20
2019-03-26T18:58:28.132Z,5.20
2019-03-26T19:00:59.014Z,5.43
2019-03-26T19:03:29.716Z,5.00
2019-03-26T19:06:00.438Z,6.60
2019-03-26T19:08:31.243Z,5.33
2019-03-26T19:11:02.006Z,5.30
2019-03-26T19:13:32.726Z,4.93
2019-03-26T19:16:03.532Z,4.80
2019-03-26T19:18:34.263Z,6.67
2019-03-26T19:21:05.031Z,5.20
2019-03-26T19:23:35.730Z,11.53
2019-03-26T19:26:06.474Z,6.00
2019-03-26T19:28:39.249Z,5.80
2019-03-26T19:31:10.012Z,6.03
2019-03-26T19:33:40.762Z,7.10
2019-03-26T19:36:11.528Z,6.10
2019-03-26T19:38:42.237Z,6.00
2019-03-26T19:41:12.957Z,6.30
2019-03-26T19:43:43.630Z,6.50
2019-03-26T19:46:14.387Z,6.53
2019-03-26T19:48:45.104Z,7.50
2019-03-26T19:51:15.798Z,6.47
2019-03-26T19:53:46.486Z,6.80
2019-03-26T19:56:17.236Z,6.47
2019-03-26T19:58:47.938Z,6.03
2019-03-26T20:01:18.685Z,5.80
2019-03-26T20:03:49.442Z,6.53
2019-03-26T20:06:21.216Z,5.70
2019-03-26T20:08:51.904Z,5.80
2019-03-26T20:11:22.676Z,6.27
2019-03-26T20:13:53.366Z,5.83
2019-03-26T20:16:27.102Z,7.13
2019-03-26T20:18:56.508Z,6.30
2019-03-26T20:21:27.257Z,6.70
2019-03-26T20:23:57.947Z,7.73
2019-03-26T20:26:28.671Z,6.43
2019-03-26T20:28:59.359Z,7.47
2019-03-26T20:31:31.060Z,6.83
2019-03-26T20:34:02.692Z,6.30
2019-03-26T20:36:33.416Z,6.20
2019-03-26T20:39:05.605Z,6.20
2019-03-26T20:41:37.388Z,6.30
2019-03-26T20:44:08.083Z,7.47
2019-03-26T20:46:38.887Z,6.37
2019-03-26T20:49:09.618Z,6.80
2019-03-26T20:51:40.310Z,5.77
2019-03-26T20:54:11.080Z,8.37
2019-03-26T20:56:41.915Z,7.00
2019-03-26T20:59:12.655Z,6.33
2019-03-26T21:01:45.544Z,8.00
2019-03-26T21:04:15.840Z,8.20
2019-03-26T21:06:46.576Z,7.00
2019-03-26T21:09:17.347Z,7.93
2019-03-26T21:11:48.167Z,7.47
2019-03-26T21:14:18.899Z,7.27
2019-03-26T21:16:49.625Z,7.00
2019-03-26T21:19:20.301Z,7.00
2019-03-26T21:21:53.057Z,6.90
2019-03-26T21:24:23.407Z,6.40
2019-03-26T21:26:54.141Z,8.30
2019-03-26T21:29:24.923Z,7.30
2019-03-26T21:31:55.620Z,7.50
2019-03-26T21:34:30.572Z,7.20
2019-03-26T21:36:59.699Z,8.50
2019-03-26T21:39:30.387Z,7.10
2019-03-26T21:42:01.129Z,8.10
2019-03-26T21:44:31.823Z,7.83
2019-03-26T21:47:02.524Z,8.00
2019-03-26T21:49:33.256Z,8.43
2019-03-26T21:52:03.967Z,8.10
2019-03-26T21:54:34.724Z,8.33
2019-03-26T21:57:05.548Z,8.47
2019-03-26T21:59:36.279Z,7.63
2019-03-26T22:02:06.999Z,8.17
2019-03-26T22:04:37.730Z,7.77
2019-03-26T22:07:08.452Z,8.30
2019-03-26T22:09:39.156Z,9.30
2019-03-26T22:12:09.959Z,8.60
2019-03-26T22:14:40.709Z,8.40
2019-03-26T22:17:11.455Z,8.33
2019-03-26T22:19:42.148Z,8.60
2019-03-26T22:22:13.824Z,9.90
2019-03-26T22:24:44.539Z,7.80
2019-03-26T22:27:15.265Z,9.00
2019-03-26T22:29:45.928Z,9.10
2019-03-26T22:32:16.619Z,8.00
2019-03-26T22:34:47.346Z,9.17
2019-03-26T22:37:18.067Z,8.70
2019-03-26T22:39:48.784Z,9.17
2019-03-26T22:42:20.498Z,11.00
2019-03-26T22:44:51.227Z,9.23
2019-03-26T22:47:21.952Z,8.93
2019-03-26T22:49:52.629Z,9.30
2019-03-26T22:52:23.346Z,9.77
2019-03-26T22:54:54.019Z,8.83
2019-03-26T22:57:24.731Z,8.60
2019-03-26T22:59:55.429Z,10.03
2019-03-26T23:02:26.608Z,10.77
2019-03-26T23:04:57.308Z,9.17
2019-03-26T23:07:28.119Z,8.40
2019-03-26T23:09:58.797Z,9.07
2019-03-26T23:12:29.516Z,10.10
2019-03-26T23:15:00.397Z,10.57
2019-03-26T23:17:32.323Z,9.93
2019-03-26T23:20:03.089Z,9.93
2019-03-26T23:22:33.831Z,9.93
2019-03-26T23:25:04.616Z,10.23
2019-03-26T23:27:35.384Z,10.13
2019-03-26T23:30:06.237Z,9.47
2019-03-26T23:32:38.036Z,10.30
2019-03-26T23:35:08.777Z,10.80
2019-03-26T23:37:40.441Z,9.07
2019-03-26T23:40:11.556Z,10.50
2019-03-26T23:42:43.247Z,10.03
2019-03-26T23:45:14.088Z,10.80
2019-03-26T23:47:44.839Z,10.23
2019-03-26T23:50:15.726Z,9.97
2019-03-26T23:52:46.429Z,11.40
2019-03-26T23:55:18.116Z,10.93
2019-03-26T23:57:48.802Z,11.33
